createdAt,value
2018-03-18T00:01:26.917Z,101163.03
2018-03-18T00:03:53.096Z,101167.73
2018-03-18T00:06:19.203Z,101166.81
2018-03-18T00:08:45.350Z,101159.22
2018-03-18T00:11:11.351Z,101166.45
2018-03-18T00:13:37.412Z,101162.98
2018-03-18T00:16:03.434Z,101161.67
2018-03-18T00:18:29.451Z,101168.50
2018-03-18T00:20:55.505Z,101168.81
2018-03-18T00:23:21.550Z,101166.29
2018-03-18T00:25:47.602Z,101166.84
2018-03-18T00:28:13.640Z,101164.25
2018-03-18T00:30:39.651Z,101179.04
2018-03-18T00:33:05.675Z,101173.03
2018-03-18T00:35:31.734Z,101176.48
2018-03-18T00:37:57.769Z,101182.75
2018-03-18T00:40:23.831Z,101179.39
2018-03-18T00:42:50.562Z,101180.11
2018-03-18T00:45:16.656Z,101177.27
2018-03-18T00:47:42.831Z,101184.12
2018-03-18T00:50:08.856Z,101193.41
2018-03-18T00:52:35.056Z,101192.55
2018-03-18T00:55:01.171Z,101186.91
2018-03-18T00:57:27.264Z,101183.63
2018-03-18T00:59:53.299Z,101187.78
2018-03-18T01:02:19.384Z,101186.53
2018-03-18T01:04:45.562Z,101183.95
2018-03-18T01:07:11.642Z,101179.70
2018-03-18T01:09:37.659Z,101186.36
2018-03-18T01:12:03.662Z,101190.10
2018-03-18T01:14:29.668Z,101186.50
2018-03-18T01:16:55.701Z,101188.66
2018-03-18T01:19:21.713Z,101183.25
2018-03-18T01:21:47.770Z,101195.20
2018-03-18T01:24:13.799Z,101189.34
2018-03-18T01:26:39.912Z,101191.03
2018-03-18T01:29:05.972Z,101186.82
2018-03-18T01:31:32.036Z,101188.16
2018-03-18T01:33:58.062Z,101188.91
2018-03-18T01:36:24.518Z,101196.63
2018-03-18T01:38:50.515Z,101187.23
2018-03-18T01:41:16.526Z,101193.44
2018-03-18T01:43:42.543Z,101188.50
2018-03-18T01:46:08.559Z,101187.48
2018-03-18T01:48:34.864Z,101189.69
2018-03-18T01:51:00.919Z,101182.84
2018-03-18T01:53:27.037Z,101192.97
2018-03-18T01:55:53.096Z,101190.04
2018-03-18T01:58:19.106Z,101190.82
2018-03-18T02:00:45.964Z,101195.98
2018-03-18T02:03:11.987Z,101193.75
2018-03-18T02:05:37.973Z,101188.20
2018-03-18T02:08:04.014Z,101190.82
2018-03-18T02:10:30.026Z,101195.87
2018-03-18T02:12:56.067Z,101191.75
2018-03-18T02:15:22.118Z,101187.57
2018-03-18T02:17:48.175Z,101194.80
2018-03-18T02:20:14.166Z,101190.09
2018-03-18T02:22:40.232Z,101184.49
2018-03-18T02:25:06.258Z,101181.07
2018-03-18T02:27:32.274Z,101181.01
2018-03-18T02:29:58.412Z,101176.69
2018-03-18T02:32:24.794Z,101174.56
2018-03-18T02:34:50.804Z,101185.66
2018-03-18T02:37:16.858Z,101174.59
2018-03-18T02:39:43.246Z,101180.95
2018-03-18T02:42:09.455Z,101177.94
2018-03-18T02:44:35.511Z,101181.18
2018-03-18T02:47:01.515Z,101174.18
2018-03-18T02:49:27.526Z,101179.23
2018-03-18T02:51:53.646Z,101180.97
2018-03-18T02:54:19.683Z,101173.31
2018-03-18T02:56:45.718Z,101179.11
2018-03-18T02:59:11.745Z,101183.28
2018-03-18T03:01:37.760Z,101182.50
2018-03-18T03:04:03.832Z,101178.58
2018-03-18T03:06:29.859Z,101178.95
2018-03-18T03:08:55.870Z,101167.78
2018-03-18T03:11:21.860Z,101179.19
2018-03-18T03:13:47.899Z,101180.83
2018-03-18T03:16:13.905Z,101181.05
2018-03-18T03:18:39.909Z,101176.38
2018-03-18T03:21:05.981Z,101178.81
2018-03-18T03:23:31.974Z,101185.16
2018-03-18T03:25:57.982Z,101185.05
2018-03-18T03:28:24.009Z,101184.20
2018-03-18T03:30:50.016Z,101185.08
2018-03-18T03:33:16.031Z,101176.86
2018-03-18T03:35:42.038Z,101180.44
2018-03-18T03:38:08.084Z,101176.77
2018-03-18T03:40:34.086Z,101184.36
2018-03-18T03:43:00.131Z,101200.02
2018-03-18T03:45:26.136Z,101186.02
2018-03-18T03:47:52.185Z,101181.75
2018-03-18T03:50:18.195Z,101205.03
2018-03-18T03:52:44.211Z,101183.67
2018-03-18T03:55:10.280Z,101186.94
2018-03-18T03:57:36.293Z,101197.25
2018-03-18T04:00:02.294Z,101188.19
2018-03-18T04:02:28.313Z,101189.50
2018-03-18T04:05:01.202Z,101192.45
2018-03-18T04:07:27.224Z,101198.33
2018-03-18T04:09:53.278Z,101198.30
2018-03-18T04:12:19.314Z,101210.09
2018-03-18T04:14:45.629Z,101199.33
2018-03-18T04:17:11.634Z,101196.53
2018-03-18T04:19:37.631Z,101199.33
2018-03-18T04:22:03.659Z,101193.69
2018-03-18T04:24:29.656Z,101195.70
2018-03-18T04:26:55.661Z,101196.48
2018-03-18T04:29:21.687Z,101201.46
2018-03-18T04:31:47.794Z,101197.97
2018-03-18T04:34:13.812Z,101203.48
2018-03-18T04:36:39.815Z,101203.75
2018-03-18T04:39:05.810Z,101197.78
2018-03-18T04:41:31.817Z,101208.05
2018-03-18T04:43:57.802Z,101209.63
2018-03-18T04:46:23.791Z,101211.30
2018-03-18T04:48:49.788Z,101209.53
2018-03-18T04:51:15.804Z,101209.56
2018-03-18T04:53:41.831Z,101211.61
2018-03-18T04:56:07.832Z,101207.35
2018-03-18T04:58:33.854Z,101211.61
2018-03-18T05:00:59.877Z,101217.25
2018-03-18T05:03:25.903Z,101205.43
2018-03-18T05:05:51.986Z,101216.04
2018-03-18T05:08:18.002Z,101213.29
2018-03-18T05:10:44.016Z,101209.13
2018-03-18T05:13:10.016Z,101209.91
2018-03-18T05:15:36.011Z,101209.94
2018-03-18T05:18:02.062Z,101229.20
2018-03-18T05:20:28.054Z,101218.59
2018-03-18T05:22:54.055Z,101225.80
2018-03-18T05:25:20.074Z,101220.46
2018-03-18T05:27:46.091Z,101224.80
2018-03-18T05:30:12.120Z,101213.03
2018-03-18T05:32:38.169Z,101226.33
2018-03-18T05:35:04.195Z,101224.31
2018-03-18T05:37:30.220Z,101233.80
2018-03-18T05:39:56.231Z,101236.02
2018-03-18T05:42:22.276Z,101235.67
2018-03-18T05:44:48.356Z,101248.06
2018-03-18T05:47:14.408Z,101236.67
2018-03-18T05:49:40.449Z,101236.27
2018-03-18T05:52:06.551Z,101235.53
2018-03-18T05:54:32.640Z,101252.55
2018-03-18T05:56:58.676Z,101245.77
2018-03-18T05:59:24.659Z,101266.31
2018-03-18T06:01:50.683Z,101266.72
2018-03-18T06:04:17.072Z,101263.33
2018-03-18T06:06:43.162Z,101254.33
2018-03-18T06:09:09.165Z,101258.66
2018-03-18T06:11:35.169Z,101263.27
2018-03-18T06:14:01.193Z,101269.58
2018-03-18T06:16:27.321Z,101264.91
2018-03-18T06:18:53.322Z,101275.69
2018-03-18T06:21:19.419Z,101268.97
2018-03-18T06:23:45.628Z,101277.19
2018-03-18T06:26:11.631Z,101262.68
2018-03-18T06:28:37.650Z,101278.16
2018-03-18T06:31:03.686Z,101284.64
2018-03-18T06:33:29.718Z,101286.01
2018-03-18T06:35:55.734Z,101287.54
2018-03-18T06:38:21.758Z,101283.06
2018-03-18T06:40:47.833Z,101283.30
2018-03-18T06:43:13.897Z,101291.06
2018-03-18T06:45:39.905Z,101293.41
2018-03-18T06:48:05.906Z,101290.63
2018-03-18T06:50:31.936Z,101303.00
2018-03-18T06:52:58.023Z,101305.77
2018-03-18T06:55:24.078Z,101301.13
2018-03-18T06:57:50.105Z,101312.64
2018-03-18T07:00:16.112Z,101323.49
2018-03-18T07:02:42.269Z,101304.66
2018-03-18T07:05:08.271Z,101313.28
2018-03-18T07:07:34.327Z,101318.02
2018-03-18T07:10:00.554Z,101323.78
2018-03-18T07:12:26.830Z,101323.16
2018-03-18T07:14:52.908Z,101329.92
2018-03-18T07:17:19.003Z,101335.48
2018-03-18T07:19:45.124Z,101331.13
2018-03-18T07:22:11.159Z,101332.39
2018-03-18T07:24:37.210Z,101343.09
2018-03-18T07:27:03.306Z,101331.30
2018-03-18T07:29:29.367Z,101361.02
2018-03-18T07:31:55.371Z,101336.20
2018-03-18T07:34:21.403Z,101341.44
2018-03-18T07:36:47.702Z,101338.73
2018-03-18T07:39:13.724Z,101342.70
2018-03-18T07:41:39.709Z,101347.03
2018-03-18T07:44:05.757Z,101349.41
2018-03-18T07:46:31.811Z,101350.11
2018-03-18T07:48:57.881Z,101346.58
2018-03-18T07:51:23.922Z,101360.27
2018-03-18T07:53:49.918Z,101356.11
2018-03-18T07:56:15.976Z,101354.28
2018-03-18T07:58:42.018Z,101353.47
2018-03-18T08:01:08.237Z,101354.44
2018-03-18T08:03:34.268Z,101359.73
2018-03-18T08:06:00.278Z,101360.95
2018-03-18T08:08:26.386Z,101353.27
2018-03-18T08:10:52.447Z,101366.23
2018-03-18T08:13:18.456Z,101361.18
2018-03-18T08:15:44.534Z,101369.36
2018-03-18T08:18:10.594Z,101364.63
2018-03-18T08:20:36.626Z,101366.20
2018-03-18T08:23:02.664Z,101354.88
2018-03-18T08:25:28.665Z,101359.07
2018-03-18T08:27:54.833Z,101355.59
2018-03-18T08:30:20.992Z,101347.45
2018-03-18T08:32:47.912Z,101352.41
2018-03-18T08:35:13.896Z,101354.73
2018-03-18T08:37:40.065Z,101354.12
2018-03-18T08:40:06.129Z,101350.97
2018-03-18T08:42:32.216Z,101345.81
2018-03-18T08:44:58.225Z,101356.89
2018-03-18T08:47:24.242Z,101366.64
2018-03-18T08:49:50.296Z,101356.05
2018-03-18T08:52:16.446Z,101355.17
2018-03-18T08:54:42.491Z,101360.38
2018-03-18T08:57:08.502Z,101371.38
2018-03-18T08:59:34.510Z,101366.50
2018-03-18T09:02:00.529Z,101364.38
2018-03-18T09:04:26.528Z,101355.16
2018-03-18T09:06:52.628Z,101369.30
2018-03-18T09:09:18.688Z,101364.81
2018-03-18T09:11:44.675Z,101345.64
2018-03-18T09:14:10.653Z,101347.67
2018-03-18T09:16:36.699Z,101356.30
2018-03-18T09:19:02.776Z,101362.79
2018-03-18T09:21:28.828Z,101356.44
2018-03-18T09:23:54.891Z,101357.67
2018-03-18T09:26:21.835Z,101346.58
2018-03-18T09:28:47.861Z,101353.69
2018-03-18T09:31:13.878Z,101364.14
2018-03-18T09:33:39.897Z,101353.25
2018-03-18T09:36:05.958Z,101358.17
2018-03-18T09:38:31.949Z,101353.62
2018-03-18T09:40:57.947Z,101350.02
2018-03-18T09:43:23.990Z,101353.10
2018-03-18T09:45:50.062Z,101349.69
2018-03-18T09:48:16.058Z,101349.34
2018-03-18T09:50:42.074Z,101361.08
2018-03-18T09:53:08.112Z,101365.16
2018-03-18T09:55:34.131Z,101372.53
2018-03-18T09:58:00.179Z,101349.61
2018-03-18T10:00:26.220Z,101356.69
2018-03-18T10:02:52.254Z,101343.25
2018-03-18T10:05:18.293Z,101352.31
2018-03-18T10:07:44.391Z,101350.66
2018-03-18T10:10:10.393Z,101339.31
2018-03-18T10:12:36.401Z,101343.12
2018-03-18T10:15:02.422Z,101352.47
2018-03-18T10:17:28.482Z,101343.89
2018-03-18T10:19:54.504Z,101343.44
2018-03-18T10:22:20.624Z,101352.41
2018-03-18T10:24:46.662Z,101350.17
2018-03-18T10:27:12.695Z,101354.75
2018-03-18T10:29:38.804Z,101358.60
2018-03-18T10:32:04.870Z,101354.31
2018-03-18T10:34:30.909Z,101345.53
2018-03-18T10:36:57.062Z,101351.41
2018-03-18T10:39:23.339Z,101361.39
2018-03-18T10:41:49.363Z,101358.76
2018-03-18T10:44:15.430Z,101350.11
2018-03-18T10:46:41.438Z,101352.51
2018-03-18T10:49:07.455Z,101352.16
2018-03-18T10:51:33.576Z,101337.27
2018-03-18T10:53:59.612Z,101363.13
2018-03-18T10:56:25.902Z,101350.09
2018-03-18T10:58:51.900Z,101358.59
2018-03-18T11:01:23.834Z,101350.47
2018-03-18T11:03:55.853Z,101351.90
2018-03-18T11:06:21.953Z,101354.36
2018-03-18T11:08:48.008Z,101350.20
2018-03-18T11:11:14.083Z,101352.53
2018-03-18T11:13:40.081Z,101348.22
2018-03-18T11:16:06.211Z,101352.50
2018-03-18T11:18:32.183Z,101347.84
2018-03-18T11:20:58.197Z,101346.71
2018-03-18T11:23:24.254Z,101351.72
2018-03-18T11:25:50.382Z,101341.40
2018-03-18T11:28:16.404Z,101345.17
2018-03-18T11:30:42.425Z,101334.28
2018-03-18T11:33:08.419Z,101333.30
2018-03-18T11:35:34.397Z,101346.33
2018-03-18T11:38:00.547Z,101355.09
2018-03-18T11:40:26.538Z,101336.75
2018-03-18T11:42:52.617Z,101337.37
2018-03-18T11:45:18.654Z,101341.76
2018-03-18T11:47:44.662Z,101344.62
2018-03-18T11:50:10.684Z,101336.61
2018-03-18T11:52:36.742Z,101336.22
2018-03-18T11:55:02.922Z,101344.34
2018-03-18T11:57:28.975Z,101336.19
2018-03-18T11:59:55.029Z,101322.50
2018-03-18T12:02:21.125Z,101333.16
2018-03-18T12:04:47.186Z,101318.97
2018-03-18T12:07:13.317Z,101329.22
2018-03-18T12:09:39.332Z,101327.67
2018-03-18T12:12:05.434Z,101330.23
2018-03-18T12:14:31.554Z,101329.44
2018-03-18T12:16:57.597Z,101323.92
2018-03-18T12:19:23.682Z,101329.19
2018-03-18T12:21:49.714Z,101327.91
2018-03-18T12:24:15.810Z,101321.80
2018-03-18T12:26:41.814Z,101322.11
2018-03-18T12:29:07.867Z,101321.77
2018-03-18T12:31:33.866Z,101310.42
2018-03-18T12:33:59.900Z,101311.44
2018-03-18T12:36:25.898Z,101309.52
2018-03-18T12:38:51.902Z,101297.27
2018-03-18T12:41:17.938Z,101301.29
2018-03-18T12:43:43.993Z,101312.06
2018-03-18T12:46:10.232Z,101303.20
2018-03-18T12:48:36.255Z,101296.17
2018-03-18T12:51:02.316Z,101302.31
2018-03-18T12:53:28.358Z,101293.93
2018-03-18T12:55:54.358Z,101293.56
2018-03-18T12:58:20.454Z,101292.22
2018-03-18T13:00:46.589Z,101295.25
2018-03-18T13:03:12.585Z,101294.42
2018-03-18T13:05:38.632Z,101288.77
2018-03-18T13:08:04.771Z,101300.49
2018-03-18T13:10:30.838Z,101283.32
2018-03-18T13:12:56.903Z,101281.31
2018-03-18T13:15:23.486Z,101275.13
2018-03-18T13:17:49.589Z,101268.89
2018-03-18T13:20:16.156Z,101256.37
2018-03-18T13:22:42.179Z,101266.59
2018-03-18T13:25:08.209Z,101269.49
2018-03-18T13:27:34.265Z,101253.94
2018-03-18T13:30:00.322Z,101281.02
2018-03-18T13:32:26.465Z,101284.45
2018-03-18T13:34:52.562Z,101277.55
2018-03-18T13:37:18.666Z,101272.89
2018-03-18T13:39:44.795Z,101264.23
2018-03-18T13:42:10.991Z,101252.55
2018-03-18T13:44:37.064Z,101257.75
2018-03-18T13:47:03.104Z,101252.20
2018-03-18T13:49:29.615Z,101256.38
2018-03-18T13:51:55.680Z,101254.66
2018-03-18T13:54:21.745Z,101257.91
2018-03-18T13:56:47.766Z,101254.48
2018-03-18T13:59:13.855Z,101249.84
2018-03-18T14:01:39.992Z,101263.03
2018-03-18T14:04:05.998Z,101273.28
2018-03-18T14:06:32.013Z,101271.77
2018-03-18T14:08:58.061Z,101275.73
2018-03-18T14:11:24.175Z,101266.75
2018-03-18T14:13:50.287Z,101274.10
2018-03-18T14:16:16.417Z,101260.23
2018-03-18T14:18:42.525Z,101262.80
2018-03-18T14:21:08.596Z,101255.06
2018-03-18T14:23:34.589Z,101247.23
2018-03-18T14:26:00.714Z,101256.67
2018-03-18T14:28:26.847Z,101255.32
2018-03-18T14:30:55.387Z,101273.72
2018-03-18T14:33:22.354Z,101261.58
2018-03-18T14:35:48.354Z,101253.70
2018-03-18T14:38:15.053Z,101270.27
2018-03-18T14:40:41.187Z,101271.07
2018-03-18T14:43:07.406Z,101281.20
2018-03-18T14:45:33.441Z,101275.42
2018-03-18T14:47:59.520Z,101278.58
2018-03-18T14:50:25.598Z,101296.58
2018-03-18T14:52:51.594Z,101276.85
2018-03-18T14:55:17.650Z,101271.32
2018-03-18T14:57:43.663Z,101255.59
2018-03-18T15:00:10.063Z,101266.28
2018-03-18T15:02:36.121Z,101275.88
2018-03-18T15:05:02.311Z,101264.58
2018-03-18T15:07:28.373Z,101283.14
2018-03-18T15:09:54.490Z,101283.81
2018-03-18T15:12:20.475Z,101287.01
2018-03-18T15:14:46.534Z,101287.09
2018-03-18T15:17:12.595Z,101288.19
2018-03-18T15:19:38.683Z,101279.69
2018-03-18T15:22:04.866Z,101267.69
2018-03-18T15:24:30.984Z,101274.18
2018-03-18T15:26:57.103Z,101276.29
2018-03-18T15:29:23.216Z,101283.52
2018-03-18T15:31:49.322Z,101289.94
2018-03-18T15:34:15.322Z,101297.58
2018-03-18T15:36:41.517Z,101299.67
2018-03-18T15:39:07.652Z,101303.02
2018-03-18T15:41:33.768Z,101300.50
2018-03-18T15:43:59.773Z,101302.41
2018-03-18T15:46:25.785Z,101305.73
2018-03-18T15:48:51.880Z,101303.25
2018-03-18T15:51:17.927Z,101313.33
2018-03-18T15:53:43.922Z,101307.63
2018-03-18T15:56:09.927Z,101307.13
2018-03-18T15:58:35.978Z,101305.82
2018-03-18T16:01:02.092Z,101304.66
2018-03-18T16:03:28.217Z,101302.66
2018-03-18T16:05:54.230Z,101313.02
2018-03-18T16:08:20.224Z,101319.64
2018-03-18T16:10:46.220Z,101310.31
2018-03-18T16:13:12.254Z,101319.59
2018-03-18T16:15:38.887Z,101323.70
2018-03-18T16:18:05.093Z,101318.37
2018-03-18T16:20:31.130Z,101319.84
2018-03-18T16:22:57.182Z,101317.36
2018-03-18T16:25:23.255Z,101320.48
2018-03-18T16:27:49.410Z,101330.68
2018-03-18T16:30:27.642Z,101319.01
2018-03-18T16:32:54.616Z,101337.47
2018-03-18T16:35:20.629Z,101330.27
2018-03-18T16:37:46.731Z,101321.84
2018-03-18T16:40:12.821Z,101322.70
2018-03-18T16:42:38.999Z,101323.48
2018-03-18T16:45:05.176Z,101334.86
2018-03-18T16:47:31.345Z,101329.22
2018-03-18T16:49:57.383Z,101342.98
2018-03-18T16:52:23.436Z,101343.08
2018-03-18T16:54:49.592Z,101353.23
2018-03-18T16:57:15.683Z,101357.00
2018-03-18T16:59:41.776Z,101364.23
2018-03-18T17:02:07.797Z,101354.53
2018-03-18T17:04:33.966Z,101369.88
2018-03-18T17:06:59.975Z,101364.48
2018-03-18T17:09:26.027Z,101363.13
2018-03-18T17:11:52.083Z,101370.54
2018-03-18T17:14:18.135Z,101376.89
2018-03-18T17:16:44.231Z,101376.50
2018-03-18T17:19:10.247Z,101379.67
2018-03-18T17:21:36.373Z,101379.97
2018-03-18T17:24:02.442Z,101384.48
2018-03-18T17:26:28.455Z,101391.73
2018-03-18T17:28:54.454Z,101393.75
2018-03-18T17:31:20.464Z,101396.25
2018-03-18T17:33:46.488Z,101404.62
2018-03-18T17:36:12.565Z,101405.33
2018-03-18T17:38:38.705Z,101411.54
2018-03-18T17:41:04.955Z,101410.50
2018-03-18T17:43:30.995Z,101412.09
2018-03-18T17:46:09.331Z,101417.03
2018-03-18T17:48:47.457Z,101421.27
2018-03-18T17:51:25.638Z,101432.34
2018-03-18T17:54:03.757Z,101436.33
2018-03-18T17:56:35.693Z,101435.12
2018-03-18T17:59:01.731Z,101448.56
2018-03-18T18:01:27.814Z,101451.90
2018-03-18T18:03:53.885Z,101462.84
2018-03-18T18:06:20.058Z,101467.35
2018-03-18T18:08:46.112Z,101459.20
2018-03-18T18:11:12.126Z,101464.04
2018-03-18T18:13:38.151Z,101474.13
2018-03-18T18:16:04.170Z,101481.17
2018-03-18T18:18:30.311Z,101479.43
2018-03-18T18:20:56.382Z,101476.65
2018-03-18T18:23:22.421Z,101483.41
2018-03-18T18:25:49.120Z,101486.71
2018-03-18T18:28:16.281Z,101485.81
2018-03-18T18:30:42.374Z,101493.12
2018-03-18T18:33:08.465Z,101493.98
2018-03-18T18:35:34.486Z,101495.70
2018-03-18T18:38:00.507Z,101500.36
2018-03-18T18:40:26.851Z,101500.85
2018-03-18T18:42:53.100Z,101511.00
2018-03-18T18:45:20.101Z,101508.73
2018-03-18T18:47:46.151Z,101508.33
2018-03-18T18:50:12.330Z,101508.09
2018-03-18T18:52:38.372Z,101507.20
2018-03-18T18:55:04.378Z,101509.97
2018-03-18T18:57:31.017Z,101512.91
2018-03-18T18:59:57.105Z,101520.66
2018-03-18T19:02:23.155Z,101522.11
2018-03-18T19:04:49.190Z,101532.41
2018-03-18T19:07:15.335Z,101530.63
2018-03-18T19:09:41.522Z,101530.52
2018-03-18T19:12:07.574Z,101522.72
2018-03-18T19:14:33.612Z,101532.48
2018-03-18T19:16:59.701Z,101530.80
2018-03-18T19:19:25.803Z,101531.97
2018-03-18T19:21:51.876Z,101525.20
2018-03-18T19:24:17.952Z,101525.03
2018-03-18T19:26:43.977Z,101530.41
2018-03-18T19:29:10.191Z,101528.78
2018-03-18T19:31:36.225Z,101533.41
2018-03-18T19:34:02.249Z,101531.25
2018-03-18T19:36:28.287Z,101527.11
2018-03-18T19:38:54.291Z,101529.14
2018-03-18T19:41:20.421Z,101528.64
2018-03-18T19:43:46.488Z,101529.98
2018-03-18T19:46:12.555Z,101537.80
2018-03-18T19:48:38.579Z,101538.70
2018-03-18T19:51:04.644Z,101537.20
2018-03-18T19:53:30.865Z,101537.63
2018-03-18T19:55:57.096Z,101546.47
2018-03-18T19:58:23.278Z,101556.45
2018-03-18T20:00:49.303Z,101546.28
2018-03-18T20:03:19.406Z,101551.65
2018-03-18T20:05:46.405Z,101557.36
2018-03-18T20:08:12.441Z,101551.52
2018-03-18T20:10:38.453Z,101556.11
2018-03-18T20:13:04.473Z,101564.07
2018-03-18T20:15:30.666Z,101559.05
2018-03-18T20:17:57.478Z,101559.73
2018-03-18T20:20:23.601Z,101563.30
2018-03-18T20:22:49.715Z,101559.83
2018-03-18T20:25:15.938Z,101568.34
2018-03-18T20:27:42.040Z,101575.98
2018-03-18T20:30:08.143Z,101565.78
2018-03-18T20:32:34.308Z,101572.23
2018-03-18T20:35:00.437Z,101571.95
2018-03-18T20:37:26.505Z,101574.48
2018-03-18T20:39:52.606Z,101577.36
2018-03-18T20:42:18.698Z,101580.39
2018-03-18T20:44:44.711Z,101576.11
2018-03-18T20:47:10.899Z,101581.56
2018-03-18T20:49:37.236Z,101588.61
2018-03-18T20:52:03.313Z,101578.14
2018-03-18T20:54:30.308Z,101582.03
2018-03-18T20:56:56.540Z,101583.24
2018-03-18T20:59:22.634Z,101584.25
2018-03-18T21:01:48.664Z,101588.73
2018-03-18T21:04:14.736Z,101584.83
2018-03-18T21:06:40.800Z,101581.33
2018-03-18T21:09:06.921Z,101587.42
2018-03-18T21:11:33.096Z,101589.13
2018-03-18T21:13:59.150Z,101583.39
2018-03-18T21:16:25.201Z,101589.75
2018-03-18T21:18:51.211Z,101582.08
2018-03-18T21:21:17.387Z,101593.58
2018-03-18T21:23:43.593Z,101588.78
2018-03-18T21:26:09.715Z,101590.80
2018-03-18T21:28:35.800Z,101593.86
2018-03-18T21:31:01.884Z,101590.67
2018-03-18T21:33:27.981Z,101592.55
2018-03-18T21:35:54.067Z,101587.73
2018-03-18T21:38:20.140Z,101600.78
2018-03-18T21:40:46.160Z,101595.44
2018-03-18T21:43:12.171Z,101590.39
2018-03-18T21:45:38.199Z,101596.38
2018-03-18T21:48:04.227Z,101583.19
2018-03-18T21:50:30.263Z,101591.41
2018-03-18T21:52:56.317Z,101590.67
2018-03-18T21:55:22.407Z,101593.39
2018-03-18T21:57:48.495Z,101593.63
2018-03-18T22:00:14.555Z,101597.16
2018-03-18T22:02:40.554Z,101598.88
2018-03-18T22:05:06.694Z,101594.51
2018-03-18T22:07:32.767Z,101599.38
2018-03-18T22:09:58.784Z,101602.62
2018-03-18T22:12:24.840Z,101592.52
2018-03-18T22:14:50.905Z,101595.82
2018-03-18T22:17:16.927Z,101589.23
2018-03-18T22:19:43.007Z,101594.55
2018-03-18T22:22:09.769Z,101594.75
2018-03-18T22:24:35.812Z,101593.40
2018-03-18T22:27:01.915Z,101605.17
2018-03-18T22:29:27.934Z,101598.75
2018-03-18T22:31:53.948Z,101591.48
2018-03-18T22:34:19.976Z,101600.84
2018-03-18T22:36:46.012Z,101600.39
2018-03-18T22:39:12.016Z,101603.86
2018-03-18T22:41:38.049Z,101598.08
2018-03-18T22:44:04.111Z,101604.73
2018-03-18T22:46:30.099Z,101602.28
2018-03-18T22:48:56.101Z,101597.41
2018-03-18T22:51:22.129Z,101599.22
2018-03-18T22:53:48.144Z,101600.27
2018-03-18T22:56:14.178Z,101596.80
2018-03-18T22:58:40.211Z,101605.10
2018-03-18T23:01:06.248Z,101595.65
2018-03-18T23:03:32.280Z,101599.22
2018-03-18T23:05:58.303Z,101592.66
2018-03-18T23:08:24.292Z,101600.02
2018-03-18T23:10:50.357Z,101595.25
2018-03-18T23:13:16.368Z,101600.02
2018-03-18T23:15:42.378Z,101594.38
2018-03-18T23:18:08.382Z,101599.55
2018-03-18T23:20:34.381Z,101602.58
2018-03-18T23:23:00.505Z,101597.63
2018-03-18T23:25:26.515Z,101596.36
2018-03-18T23:27:53.312Z,101594.67
2018-03-18T23:30:19.429Z,101599.19
2018-03-18T23:32:45.497Z,101599.95
2018-03-18T23:35:11.497Z,101597.50
2018-03-18T23:37:37.589Z,101600.65
2018-03-18T23:40:03.640Z,101594.97
2018-03-18T23:42:29.664Z,101596.61
2018-03-18T23:44:55.718Z,101592.38
2018-03-18T23:47:21.808Z,101599.84
2018-03-18T23:49:48.198Z,101599.20
2018-03-18T23:52:14.267Z,101593.17
2018-03-18T23:54:40.282Z,101595.16
2018-03-18T23:57:06.342Z,101597.92
2018-03-18T23:59:32.433Z,101592.23
